Time;durP1;ratioP1;P1;durP2;ratioP2;P2;SDS_P1;SDS_P2;PMS_P1;PMS_P2;Temp;Humidity;BMP_temperature;BMP_pressure;BME280_temperature;BME280_humidity;BME280_pressure;Samples;Min_cycle;Max_cycle;Signal;HPM_P1;HPM_P2
2022/09/27 00:03:05;;;;;;;2.93;1.40;;;;;;;9.59;100.00;94873.75;10372033;28;20324;-73
2022/09/27 00:08:05;;;;;;;1.67;1.30;;;;;;;9.54;100.00;94870.09;10354982;28;20243;-72
2022/09/27 00:13:06;;;;;;;2.13;1.30;;;;;;;9.50;100.00;94854.03;10371061;28;20228;-72
2022/09/27 00:18:06;;;;;;;2.33;1.43;;;;;;;9.40;100.00;94853.56;10372222;28;20296;-72
2022/09/27 00:23:06;;;;;;;4.60;1.70;;;;;;;9.41;100.00;94850.75;10372024;28;20189;-72
2022/09/27 00:28:07;;;;;;;2.53;1.70;;;;;;;9.34;100.00;94834.28;10371681;28;20200;-72
2022/09/27 00:33:09;;;;;;;4.03;2.00;;;;;;;9.29;100.00;94836.66;10354182;28;20233;-72
2022/09/27 00:38:09;;;;;;;2.77;1.90;;;;;;;9.20;100.00;94816.91;10353672;28;20240;-73
2022/09/27 00:43:22;;;;;;;4.70;2.40;;;;;;;9.08;100.00;94827.09;10371383;28;20240;-73
2022/09/27 00:48:26;;;;;;;3.07;2.40;;;;;;;9.01;100.00;94808.78;10371121;28;20650;-73
2022/09/27 00:53:30;;;;;;;2.93;2.50;;;;;;;8.94;100.00;94800.13;10370870;28;20221;-73
2022/09/27 00:58:35;;;;;;;3.97;2.60;;;;;;;8.92;100.00;94782.03;10336671;28;20673;-73
2022/09/27 01:03:39;;;;;;;3.30;2.57;;;;;;;8.99;100.00;94773.41;10351676;28;20602;-72
2022/09/27 01:08:40;;;;;;;2.53;2.23;;;;;;;9.08;100.00;94752.19;10353028;28;20189;-72
2022/09/27 01:13:58;;;;;;;3.90;2.20;;;;;;;9.17;100.00;94741.53;10352410;28;20225;-72
2022/09/27 01:19:20;;;;;;;3.03;1.93;;;;;;;9.24;100.00;94721.47;10336002;28;20193;-73
2022/09/27 01:24:38;;;;;;;2.00;1.80;;;;;;;9.28;100.00;94723.50;10335602;28;20196;-73
2022/09/27 01:29:57;;;;;;;3.03;1.87;;;;;;;9.32;100.00;94715.25;10335868;28;20237;-72
2022/09/27 01:35:28;;;;;;;2.03;1.73;;;;;;;9.34;100.00;94713.25;10351573;28;20217;-72
2022/09/27 01:40:37;;;;;;;2.97;2.20;;;;;;;9.31;100.00;94696.19;10335772;28;20185;-72
2022/09/27 01:46:11;;;;;;;4.17;2.10;;;;;;;9.31;100.00;94700.59;10368860;28;20198;-72
2022/09/27 01:51:35;;;;;;;2.53;2.10;;;;;;;9.28;100.00;94693.97;10369618;28;20252;-72
2022/09/27 01:56:42;;;;;;;4.03;2.93;;;;;;;9.20;100.00;94692.31;10351110;28;20189;-72
2022/09/27 02:01:51;;;;;;;4.10;3.00;;;;;;;9.19;100.00;94687.28;10335832;28;20229;-72
2022/09/27 02:07:02;;;;;;;9.70;3.70;;;;;;;9.15;100.00;94673.03;10335010;28;20680;-72
2022/09/27 02:12:07;;;;;;;4.47;3.50;;;;;;;9.20;100.00;94668.00;10351338;28;20210;-73
2022/09/27 02:17:28;;;;;;;5.97;3.07;;;;;;;9.31;100.00;94658.78;10350495;28;20193;-73
2022/09/27 02:22:44;;;;;;;6.80;3.77;;;;;;;9.40;100.00;94649.75;10351133;28;20782;-72
2022/09/27 02:28:24;;;;;;;4.67;4.20;;;;;;;9.44;100.00;94648.34;10334609;28;20328;-72
2022/09/27 02:33:36;;;;;;;6.00;5.03;;;;;;;9.45;100.00;94648.13;10334681;28;20733;-72
2022/09/27 02:38:36;;;;;;;8.03;5.73;;;;;;;9.53;100.00;94634.06;10354537;28;20624;-72
2022/09/27 02:43:37;;;;;;;6.10;5.50;;;;;;;9.49;100.00;94632.84;10367168;28;20189;-72
2022/09/27 02:48:58;;;;;;;8.03;6.87;;;;;;;9.46;100.00;94628.03;10358060;28;20201;-72
2022/09/27 02:54:10;;;;;;;6.87;5.30;;;;;;;9.63;100.00;94626.63;10358161;28;20217;-72
2022/09/27 02:59:44;;;;;;;8.47;7.10;;;;;;;9.62;100.00;94621.59;10374848;28;20190;-72
2022/09/27 03:05:00;;;;;;;8.60;7.40;;;;;;;9.57;100.00;94624.81;10355215;28;20201;-72
2022/09/27 03:10:01;;;;;;;8.27;6.53;;;;;;;9.60;100.00;94619.19;10337461;28;20206;-72
2022/09/27 03:15:02;;;;;;;11.27;7.33;;;;;;;9.62;100.00;94625.00;10353178;28;20189;-72
2022/09/27 03:20:28;;;;;;;7.67;5.67;;;;;;;9.61;100.00;94604.31;10370494;28;20616;-72
2022/09/27 03:25:42;;;;;;;8.80;6.43;;;;;;;9.60;100.00;94619.19;10370966;28;20277;-73
2022/09/27 03:30:45;;;;;;;8.80;7.97;;;;;;;9.53;100.00;94605.31;10370583;28;20233;-72
2022/09/27 03:35:49;;;;;;;9.17;8.23;;;;;;;9.44;100.00;94604.72;10351706;28;20213;-73
2022/09/27 03:40:49;;;;;;;9.90;8.20;;;;;;;9.45;100.00;94611.56;10352693;28;20244;-73
2022/09/27 03:45:50;;;;;;;10.33;8.83;;;;;;;9.46;100.00;94600.09;10351851;28;20284;-73
2022/09/27 03:50:50;;;;;;;13.23;8.43;;;;;;;9.34;100.00;94593.88;10351664;28;20440;-72
2022/09/27 03:55:51;;;;;;;11.03;8.73;;;;;;;9.41;100.00;94584.19;10369643;28;20699;-72
2022/09/27 04:00:51;;;;;;;12.60;8.53;;;;;;;9.51;100.00;94575.16;10351476;28;20623;-72
2022/09/27 04:05:52;;;;;;;11.17;7.83;;;;;;;9.59;100.00;94565.28;10354393;28;20612;-72
2022/09/27 04:10:57;;;;;;;15.90;8.53;;;;;;;9.55;100.00;94564.09;10353966;28;20264;-72
2022/09/27 04:15:57;;;;;;;8.53;7.73;;;;;;;9.61;100.00;94555.44;10353758;28;20403;-73
2022/09/27 04:21:28;;;;;;;9.73;8.63;;;;;;;9.46;100.00;94549.63;10317957;28;20189;-72
2022/09/27 04:26:29;;;;;;;10.10;9.10;;;;;;;9.46;100.00;94549.63;10354410;28;20209;-73
2022/09/27 04:31:37;;;;;;;9.77;8.03;;;;;;;9.48;100.00;94552.84;10354626;28;20260;-72
2022/09/27 04:36:56;;;;;;;9.07;7.40;;;;;;;9.55;100.00;94550.22;10371161;28;20217;-72
2022/09/27 04:42:09;;;;;;;9.10;8.20;;;;;;;9.46;100.00;94552.22;10353824;28;20264;-72
2022/09/27 04:47:10;;;;;;;9.93;7.87;;;;;;;9.45;100.00;94548.81;10371007;28;20648;-72
2022/09/27 04:52:11;;;;;;;11.43;6.70;;;;;;;9.52;100.00;94554.03;10353594;28;20251;-72
2022/09/27 04:57:11;;;;;;;8.80;5.93;;;;;;;9.54;100.00;94543.38;10352952;28;20656;-72
2022/09/27 05:02:12;;;;;;;9.27;6.47;;;;;;;9.53;100.00;94550.44;10352595;28;20217;-72
2022/09/27 05:07:33;;;;;;;6.80;6.10;;;;;;;9.49;100.00;94549.22;10370265;28;20201;-72
2022/09/27 05:12:37;;;;;;;7.30;6.60;;;;;;;9.42;100.00;94548.44;10353376;28;20217;-72
2022/09/27 05:17:38;;;;;;;7.67;6.33;;;;;;;9.40;100.00;94556.47;10352073;28;20866;-72
2022/09/27 05:22:57;;;;;;;6.60;5.50;;;;;;;9.36;100.00;94557.09;10371098;28;20189;-72
2022/09/27 05:27:58;;;;;;;7.83;6.57;;;;;;;9.22;100.00;94554.47;10359305;28;20604;-73
2022/09/27 05:32:58;;;;;;;7.83;6.57;;;;;;;9.09;100.00;94557.06;10352296;28;20221;-73
2022/09/27 05:37:59;;;;;;;7.73;6.03;;;;;;;9.10;100.00;94562.09;10369538;28;20236;-73
2022/09/27 05:43:03;;;;;;;6.60;5.73;;;;;;;9.06;100.00;94560.09;10351854;28;20190;-73
2022/09/27 05:48:04;;;;;;;9.40;6.87;;;;;;;8.99;100.00;94569.72;10351907;28;20200;-73
2022/09/27 05:53:08;;;;;;;8.50;7.70;;;;;;;8.92;100.00;94562.69;10351174;28;20240;-73
2022/09/27 05:58:09;;;;;;;6.77;6.07;;;;;;;8.93;100.00;94561.69;10351879;28;20193;-73
2022/09/27 06:03:17;;;;;;;22.27;12.03;;;;;;;8.92;100.00;94567.91;10351057;28;20231;-74
2022/09/27 06:08:37;;;;;;;11.07;9.97;;;;;;;8.87;100.00;94557.25;10368899;28;20648;-73
2022/09/27 06:13:40;;;;;;;9.73;8.77;;;;;;;8.88;100.00;94564.09;10361597;28;20209;-73
2022/09/27 06:18:41;;;;;;;9.60;8.67;;;;;;;8.75;100.00;94562.25;10362267;28;20193;-73
2022/09/27 06:23:42;;;;;;;9.53;8.43;;;;;;;8.72;100.00;94569.69;10359202;28;20190;-73
2022/09/27 06:28:54;;;;;;;8.80;7.87;;;;;;;8.73;100.00;94561.66;10358793;28;20185;-73
2022/09/27 06:33:54;;;;;;;7.37;6.67;;;;;;;8.84;100.00;94562.88;10359051;28;20546;-73
2022/09/27 06:38:56;;;;;;;8.90;8.00;;;;;;;9.00;100.00;94566.13;10375847;28;20271;-74
2022/09/27 06:44:04;;;;;;;9.03;8.13;;;;;;;9.08;100.00;94568.53;10358175;28;20197;-73
2022/09/27 06:49:40;;;;;;;8.20;7.40;;;;;;;9.10;100.00;94569.94;10320455;28;20689;-73
2022/09/27 06:54:40;;;;;;;8.33;6.63;;;;;;;9.10;100.00;94590.03;10355741;28;20208;-72
2022/09/27 07:05:20;;;;;;;8.73;6.27;;;;;;;9.15;100.00;94587.63;10372370;28;20197;-73
2022/09/27 07:10:34;;;;;;;6.77;4.60;;;;;;;9.19;100.00;94583.63;10356198;28;20224;-72
2022/09/27 07:15:36;;;;;;;4.30;3.90;;;;;;;9.30;100.00;94581.41;10372972;28;20193;-72
2022/09/27 07:20:39;;;;;;;3.70;3.33;;;;;;;9.39;100.00;94588.84;10372273;28;20280;-73
2022/09/27 07:25:40;;;;;;;3.00;2.67;;;;;;;9.48;100.00;94586.00;10366721;28;20661;-73
2022/09/27 07:30:41;;;;;;;2.40;1.60;;;;;;;9.46;100.00;94589.66;10395039;28;20228;-73
2022/09/27 07:35:42;;;;;;;2.47;1.80;;;;;;;9.60;100.00;94573.94;10395851;28;20216;-72
2022/09/27 07:40:43;;;;;;;1.60;1.50;;;;;;;9.60;100.00;94576.53;10414017;28;20187;-72
2022/09/27 07:45:43;;;;;;;1.63;1.53;;;;;;;9.60;100.00;94577.38;10396134;28;20193;-73
2022/09/27 07:51:10;;;;;;;1.87;1.50;;;;;;;9.64;100.00;94568.09;10365332;28;20688;-73
2022/09/27 07:56:16;;;;;;;3.70;1.50;;;;;;;9.63;100.00;94563.06;10354026;28;20969;-73
2022/09/27 08:01:16;;;;;;;2.97;1.30;;;;;;;9.91;100.00;94564.66;10372076;28;20312;-71
2022/09/27 08:06:17;;;;;;;0.90;0.90;;;;;;;10.25;100.00;94560.91;10353276;28;20189;-72
2022/09/27 08:11:18;;;;;;;0.90;0.90;;;;;;;10.73;100.00;94556.25;10353403;28;20288;-73
2022/09/27 08:16:21;;;;;;;1.15;1.00;;;;;;;10.73;100.00;94553.66;10353298;28;20193;-73
2022/09/27 08:21:50;;;;;;;1.00;0.90;;;;;;;10.94;100.00;94549.91;10353073;28;20276;-72
2022/09/27 08:26:55;;;;;;;0.73;0.73;;;;;;;11.40;100.00;94543.47;10352231;28;20197;-73
2022/09/27 08:32:15;;;;;;;0.60;0.60;;;;;;;11.24;100.00;94529.13;10352662;28;20236;-73
2022/09/27 08:37:16;;;;;;;0.88;0.88;;;;;;;10.97;100.00;94531.91;10351237;28;20275;-72
2022/09/27 08:42:31;;;;;;;0.80;0.80;;;;;;;11.07;100.00;94562.88;10352209;28;20196;-73
2022/09/27 08:47:42;;;;;;;1.55;1.45;;;;;;;11.02;100.00;94547.00;10336316;28;20195;-73
2022/09/27 08:53:04;;;;;;;0.70;0.70;;;;;;;11.15;100.00;94556.56;10366628;28;20321;-73
2022/09/27 08:58:40;;;;;;;0.60;0.57;;;;;;;11.77;100.00;94539.06;10483404;28;20603;-55
2022/09/27 09:03:55;;;;;;;0.70;0.70;;;;;;;11.39;100.00;94561.03;10463231;28;20226;-62
2022/09/27 09:09:26;;;;;;;1.55;0.80;;;;;;;10.48;100.00;94593.66;10443389;28;20188;-60
2022/09/27 09:15:15;;;;;;;3.43;1.43;;;;;;;9.40;100.00;94629.66;10468421;28;20792;-54
2022/09/27 09:20:35;;;;;;;2.47;0.70;;;;;;;9.00;100.00;94642.63;10463140;28;20203;-58
2022/09/27 09:26:01;;;;;;;0.60;0.60;;;;;;;8.69;100.00;94645.78;10478540;28;20214;-58
2022/09/27 09:31:13;;;;;;;1.07;0.70;;;;;;;8.77;100.00;94642.19;10478765;28;20294;-58
2022/09/27 09:36:16;;;;;;;6.67;1.30;;;;;;;9.18;100.00;94638.66;10479876;28;20207;-58
2022/09/27 09:41:40;;;;;;;1.07;0.90;;;;;;;9.23;100.00;94639.69;10481172;28;20287;-58
2022/09/27 09:46:44;;;;;;;1.43;0.90;;;;;;;9.16;100.00;94636.25;10463919;28;20195;-61
2022/09/27 09:51:49;;;;;;;1.63;1.20;;;;;;;9.29;100.00;94627.63;10479641;28;20214;-59
2022/09/27 09:57:03;;;;;;;0.73;0.73;;;;;;;10.09;100.00;94619.72;10478093;28;20254;-60
2022/09/27 10:02:20;;;;;;;1.05;0.60;;;;;;;11.60;100.00;94604.41;10462441;28;20686;-54
2022/09/27 10:07:22;;;;;;;4.20;1.00;;;;;;;12.27;100.00;94584.63;10445234;28;20187;-57
2022/09/27 10:12:22;;;;;;;1.20;0.90;;;;;;;12.36;100.00;94593.81;10450976;28;20210;-56
2022/09/27 10:17:27;;;;;;;1.25;0.77;;;;;;;12.49;100.00;94562.13;10451683;28;20226;-56
2022/09/27 10:22:35;;;;;;;0.45;0.45;;;;;;;11.51;100.00;94579.47;10435212;28;20247;-58
2022/09/27 10:27:49;;;;;;;0.57;0.57;;;;;;;10.61;100.00;94601.47;10416385;28;20253;-62
2022/09/27 10:33:15;;;;;;;0.73;0.40;;;;;;;10.39;100.00;94615.84;10410182;28;20614;-56
2022/09/27 10:38:17;;;;;;;0.75;0.75;;;;;;;10.48;100.00;94625.84;10450087;28;20219;-59
2022/09/27 10:43:29;;;;;;;0.63;0.50;;;;;;;10.57;100.00;94628.25;10450293;28;20219;-59
2022/09/27 10:48:32;;;;;;;0.50;0.50;;;;;;;10.00;100.00;94673.28;10450392;28;20227;-56
2022/09/27 10:53:35;;;;;;;0.40;0.40;;;;;;;8.93;100.00;94676.59;10436905;28;20220;-58
2022/09/27 10:58:44;;;;;;;0.50;0.50;;;;;;;8.80;100.00;94688.78;10434660;28;20701;-61
2022/09/27 11:03:55;;;;;;;0.80;0.80;;;;;;;8.44;100.00;94697.66;10449616;28;20222;-60
2022/09/27 11:09:10;;;;;;;2.33;0.67;;;;;;;8.47;100.00;94705.09;10448324;28;20184;-59
2022/09/27 11:14:19;;;;;;;0.67;0.67;;;;;;;8.64;100.00;94714.25;10449270;28;20219;-60
2022/09/27 11:19:43;;;;;;;0.60;0.60;;;;;;;8.14;100.00;94723.94;10447623;28;20284;-61
2022/09/27 11:25:11;;;;;;;2.70;0.97;;;;;;;8.47;100.00;94718.97;10432515;28;20258;-60
2022/09/27 11:30:16;;;;;;;0.93;0.93;;;;;;;8.80;100.00;94730.56;10449165;28;20604;-60
2022/09/27 11:35:25;;;;;;;0.80;0.80;;;;;;;8.72;100.00;94711.44;10432717;28;20219;-58
2022/09/27 11:40:34;;;;;;;0.87;0.80;;;;;;;8.58;100.00;94709.78;10446877;28;20283;-58
2022/09/27 11:45:45;;;;;;;0.90;0.90;;;;;;;8.38;100.00;94704.44;10431764;28;20690;-60
2022/09/27 11:50:59;;;;;;;0.60;0.60;;;;;;;8.65;100.00;94702.81;10448185;28;20184;-61
2022/09/27 11:56:30;;;;;;;1.43;0.97;;;;;;;9.52;100.00;94703.03;10431495;28;20235;-60
2022/09/27 12:01:46;;;;;;;1.23;0.90;;;;;;;9.75;100.00;94697.41;10436677;28;20224;-59
2022/09/27 12:07:30;;;;;;;0.87;0.80;;;;;;;9.43;100.00;94702.44;10447418;28;20179;-62
2022/09/27 12:12:33;;;;;;;1.13;0.67;;;;;;;8.97;100.00;94718.78;10438142;28;20224;-60
2022/09/27 12:17:45;;;;;;;0.63;0.63;;;;;;;9.55;100.00;94710.47;10429805;28;20740;-60
2022/09/27 12:22:52;;;;;;;0.70;0.70;;;;;;;9.49;100.00;94721.72;10430320;28;20220;-61
2022/09/27 12:28:02;;;;;;;0.50;0.50;;;;;;;9.68;100.00;94730.59;10448548;28;20280;-59
2022/09/27 12:33:14;;;;;;;0.50;0.50;;;;;;;10.17;100.00;94720.75;10429661;28;20238;-58
2022/09/27 12:38:19;;;;;;;0.50;0.50;;;;;;;9.85;100.00;94711.88;10429610;28;20561;-61
2022/09/27 12:43:26;;;;;;;0.50;0.50;;;;;;;10.86;100.00;94705.50;10446340;28;20207;-60
2022/09/27 12:48:48;;;;;;;0.50;0.50;;;;;;;10.31;100.00;94714.47;10446440;28;20188;-56
2022/09/27 12:53:59;;;;;;;0.97;0.60;;;;;;;9.97;100.00;94718.16;10445993;28;20305;-58
2022/09/27 12:59:27;;;;;;;0.70;0.70;;;;;;;10.24;100.00;94705.81;10446428;28;20265;-61
2022/09/27 13:04:45;;;;;;;0.68;0.63;;;;;;;11.14;100.00;94675.53;10429479;28;20239;-59
2022/09/27 13:10:02;;;;;;;0.68;0.68;;;;;;;10.88;100.00;94691.16;10430273;28;20231;-61
2022/09/27 13:15:11;;;;;;;0.60;0.60;;;;;;;10.65;100.00;94689.03;10424918;28;20240;-64
2022/09/27 13:20:41;;;;;;;0.60;0.60;;;;;;;10.07;100.00;94702.03;10428411;28;20188;-62
2022/09/27 13:26:03;;;;;;;0.60;0.60;;;;;;;10.07;100.00;94709.88;10430394;28;20263;-64
2022/09/27 13:31:15;;;;;;;0.60;0.60;;;;;;;10.31;100.00;94706.63;10404606;28;20211;-62
2022/09/27 13:36:23;;;;;;;0.52;0.52;;;;;;;10.17;100.00;94703.22;10389155;28;20215;-62
2022/09/27 13:41:52;;;;;;;0.97;0.77;;;;;;;10.00;100.00;94725.59;10405860;28;20582;-60
2022/09/27 13:46:59;;;;;;;8.53;6.67;;;;;;;11.64;98.86;94678.22;10412220;28;20414;-56
2022/09/27 13:52:15;;;;;;;0.57;0.50;;;;;;;12.19;92.23;94658.41;10427718;28;20203;-56
2022/09/27 13:57:40;;;;;;;1.20;0.90;;;;;;;11.95;88.67;94645.91;10398326;28;20584;-57
2022/09/27 14:03:05;;;;;;;0.47;0.47;;;;;;;12.83;81.41;94594.03;10433220;28;20311;-58
2022/09/27 14:08:17;;;;;;;1.00;0.80;;;;;;;12.44;84.43;94653.09;10397780;28;20191;-59
2022/09/27 14:13:21;;;;;;;0.60;0.60;;;;;;;12.32;85.08;94676.66;10421230;28;20748;-59
2022/09/27 14:18:31;;;;;;;1.05;0.68;;;;;;;11.16;86.33;94687.38;10404979;28;20238;-59
2022/09/27 14:23:31;;;;;;;0.70;0.70;;;;;;;10.18;89.13;94717.94;10437510;28;20215;-61
2022/09/27 14:28:39;;;;;;;0.70;0.70;;;;;;;9.95;93.09;94747.13;10409960;28;20219;-60
2022/09/27 14:34:04;;;;;;;0.70;0.70;;;;;;;10.25;96.29;94762.38;10435063;28;20257;-60
2022/09/27 14:39:14;;;;;;;0.93;0.70;;;;;;;10.59;95.04;94762.38;10449587;28;20266;-60
2022/09/27 14:44:17;;;;;;;1.25;0.77;;;;;;;10.75;96.71;94774.22;10444203;28;20212;-59
2022/09/27 14:49:20;;;;;;;0.80;0.80;;;;;;;10.48;99.06;94787.38;10410396;28;20192;-60
2022/09/27 14:54:26;;;;;;;1.42;1.33;;;;;;;11.47;96.84;94774.97;10430360;28;20751;-60
2022/09/27 14:59:33;;;;;;;0.82;0.77;;;;;;;11.03;91.25;94739.88;10451652;28;20184;-60
2022/09/27 15:04:33;;;;;;;1.00;1.00;;;;;;;10.16;97.56;94769.63;10424862;23;20236;-62
2022/09/27 15:09:33;;;;;;;0.90;0.90;;;;;;;9.80;96.83;94765.63;10408983;28;20204;-61
2022/09/27 15:14:39;;;;;;;1.13;1.00;;;;;;;9.77;97.73;94765.19;10390404;28;20233;-62
2022/09/27 15:19:55;;;;;;;9.33;6.93;;;;;;;9.40;100.00;94780.41;10367310;28;20239;-64
2022/09/27 15:25:03;;;;;;;7.87;5.40;;;;;;;9.37;100.00;94792.06;10360528;28;20243;-62
2022/09/27 15:30:04;;;;;;;5.13;2.00;;;;;;;9.68;100.00;94844.81;10367939;28;20248;-61
2022/09/27 15:35:06;;;;;;;0.90;0.90;;;;;;;9.43;100.00;94830.50;10354358;28;20256;-64
2022/09/27 15:40:19;;;;;;;3.60;1.90;;;;;;;8.48;100.00;94826.75;10327726;28;20226;-65
2022/09/27 15:45:30;;;;;;;2.07;1.83;;;;;;;7.89;100.00;94815.63;10326831;28;20210;-64
2022/09/27 15:50:31;;;;;;;1.20;1.10;;;;;;;7.85;100.00;94815.16;10327765;28;20214;-61
2022/09/27 15:55:36;;;;;;;2.10;1.90;;;;;;;7.76;100.00;94836.34;10348722;28;20222;-63
2022/09/27 16:00:36;;;;;;;8.00;3.67;;;;;;;7.40;100.00;94837.97;10360224;28;20200;-63
2022/09/27 16:05:36;;;;;;;5.53;2.60;;;;;;;7.46;100.00;94852.06;10324224;28;20233;-61
2022/09/27 16:10:44;;;;;;;3.90;3.53;;;;;;;7.71;100.00;94859.56;10326650;28;20270;-64
2022/09/27 16:15:44;;;;;;;2.57;1.40;;;;;;;7.92;100.00;94848.34;10325331;28;20229;-64
2022/09/27 16:20:45;;;;;;;5.80;2.80;;;;;;;7.89;100.00;94861.72;10326195;28;20194;-60
2022/09/27 16:25:45;;;;;;;6.53;3.83;;;;;;;7.92;100.00;94892.66;10325645;28;20206;-63
2022/09/27 16:30:46;;;;;;;2.57;1.90;;;;;;;7.47;100.00;94906.59;10334245;28;20252;-60
2022/09/27 16:35:49;;;;;;;6.77;4.50;;;;;;;7.27;100.00;94905.53;10354082;28;20283;-62
2022/09/27 16:40:49;;;;;;;1.50;1.40;;;;;;;7.03;100.00;94897.03;10367484;28;20671;-61
2022/09/27 16:45:49;;;;;;;1.93;1.00;;;;;;;6.97;100.00;94890.72;10363946;28;20217;-61
2022/09/27 16:56:08;;;;;;;1.40;1.30;;;;;;;6.86;100.00;94888.56;10329344;28;20279;-61
2022/09/27 17:01:09;;;;;;;4.70;1.53;;;;;;;6.74;100.00;94892.59;10327283;28;20283;-62
2022/09/27 17:06:09;;;;;;;1.37;1.27;;;;;;;6.76;100.00;94895.81;10332345;28;20228;-61
2022/09/27 17:11:14;;;;;;;4.43;1.73;;;;;;;6.65;100.00;94902.28;10354913;28;20197;-62
2022/09/27 17:16:15;;;;;;;3.10;1.97;;;;;;;6.42;100.00;94902.31;10339345;28;20217;-63
2022/09/27 17:21:16;;;;;;;1.80;1.43;;;;;;;6.39;100.00;94903.47;10346523;28;20235;-63
2022/09/27 17:26:20;;;;;;;37.47;19.90;;;;;;;6.14;100.00;94902.84;10340141;28;20202;-63
2022/09/27 17:31:21;;;;;;;5.83;3.90;;;;;;;6.06;100.00;94908.09;10333346;28;20225;-62
2022/09/27 17:36:24;;;;;;;3.60;2.10;;;;;;;6.12;100.00;94902.19;10332550;28;20332;-62
2022/09/27 17:41:27;;;;;;;3.17;2.53;;;;;;;6.13;100.00;94910.84;10333110;28;20236;-63
2022/09/27 17:46:33;;;;;;;14.03;8.00;;;;;;;6.05;100.00;94904.69;10332366;28;20194;-63
2022/09/27 17:51:36;;;;;;;80.63;38.13;;;;;;;6.05;100.00;94912.50;10332306;28;20194;-61
2022/09/27 17:56:37;;;;;;;35.07;18.17;;;;;;;6.02;100.00;94919.84;10332404;28;20707;-62
2022/09/27 18:01:38;;;;;;;76.60;30.60;;;;;;;6.12;100.00;94930.00;10331749;28;20649;-62
2022/09/27 18:06:40;;;;;;;33.97;13.93;;;;;;;6.39;100.00;94923.47;10331833;28;20196;-61
2022/09/27 18:11:40;;;;;;;19.30;9.47;;;;;;;6.41;100.00;94935.28;10331183;28;20669;-60
2022/09/27 18:16:42;;;;;;;25.30;12.27;;;;;;;6.40;100.00;94928.50;10331381;28;20222;-62
2022/09/27 18:21:43;;;;;;;19.97;10.97;;;;;;;6.23;100.00;94939.97;10330983;28;20583;-62
2022/09/27 18:26:45;;;;;;;16.90;8.13;;;;;;;6.15;100.00;94947.84;10330832;28;20182;-62
2022/09/27 18:31:47;;;;;;;11.90;6.20;;;;;;;6.12;100.00;94949.00;10330894;28;20585;-62
2022/09/27 18:36:47;;;;;;;8.40;6.20;;;;;;;6.12;100.00;94953.41;10333266;28;20215;-62
2022/09/27 18:41:47;;;;;;;2.17;2.00;;;;;;;5.97;100.00;94942.91;10347607;28;20316;-62
2022/09/27 18:46:49;;;;;;;0.90;0.90;;;;;;;5.93;100.00;94936.44;10333309;28;20186;-63
2022/09/27 18:51:50;;;;;;;1.30;1.20;;;;;;;5.77;100.00;94935.53;10332626;28;20211;-62
2022/09/27 18:56:51;;;;;;;6.83;5.53;;;;;;;5.57;100.00;94929.13;10346716;28;20210;-62
2022/09/27 19:01:51;;;;;;;1.50;1.40;;;;;;;5.46;100.00;94912.94;10347401;28;20224;-62
2022/09/27 19:06:53;;;;;;;2.40;2.00;;;;;;;5.35;100.00;94916.72;10348557;28;20687;-62
2022/09/27 19:11:53;;;;;;;25.23;11.90;;;;;;;5.24;100.00;94924.06;10349190;28;20227;-62
2022/09/27 19:16:54;;;;;;;4.60;2.30;;;;;;;5.11;100.00;94922.00;10348322;28;20217;-63
2022/09/27 19:21:54;;;;;;;11.97;5.93;;;;;;;5.13;100.00;94923.47;10365390;28;20304;-62
2022/09/27 19:26:56;;;;;;;18.63;8.60;;;;;;;5.02;100.00;94921.22;10365598;28;20189;-63
2022/09/27 19:31:56;;;;;;;3.43;2.37;;;;;;;4.91;100.00;94917.19;10369075;28;20263;-62
2022/09/27 19:36:56;;;;;;;12.13;6.53;;;;;;;4.93;100.00;94912.66;10365392;28;20308;-61
2022/09/27 19:41:57;;;;;;;9.03;5.07;;;;;;;4.99;100.00;94919.78;10367406;28;20224;-61
2022/09/27 19:46:57;;;;;;;1.77;1.40;;;;;;;4.96;100.00;94908.91;10364148;28;20193;-61
2022/09/27 19:51:58;;;;;;;5.70;3.30;;;;;;;4.90;100.00;94912.16;10346097;28;20309;-62
2022/09/27 19:56:58;;;;;;;3.07;2.23;;;;;;;4.86;100.00;94916.09;10346560;28;20218;-62
2022/09/27 20:01:58;;;;;;;1.50;1.40;;;;;;;4.77;100.00;94915.28;10345967;28;20464;-62
2022/09/27 20:06:59;;;;;;;2.07;1.73;;;;;;;4.72;100.00;94915.78;10343441;28;20305;-61
2022/09/27 20:11:59;;;;;;;3.93;3.20;;;;;;;4.78;100.00;94920.31;10326779;28;20221;-60
2022/09/27 20:17:00;;;;;;;12.70;7.27;;;;;;;4.78;100.00;94922.09;10327336;28;20214;-62
2022/09/27 20:22:00;;;;;;;4.03;1.90;;;;;;;4.89;100.00;94923.53;10326418;28;20779;-58
2022/09/27 20:27:00;;;;;;;34.17;11.60;;;;;;;4.87;100.00;94918.50;10327282;28;20185;-61
2022/09/27 20:32:01;;;;;;;15.20;6.90;;;;;;;4.88;100.00;94916.72;10327037;28;20209;-61
2022/09/27 20:37:01;;;;;;;10.87;4.93;;;;;;;4.96;100.00;94912.31;10326681;28;20214;-60
2022/09/27 20:42:02;;;;;;;8.67;2.87;;;;;;;4.85;100.00;94914.44;10326453;28;20217;-60
2022/09/27 20:47:02;;;;;;;7.63;2.90;;;;;;;4.91;100.00;94908.59;10326902;28;20272;-61
2022/09/27 20:52:02;;;;;;;3.00;2.70;;;;;;;5.01;100.00;94901.44;10326285;28;20240;-61
2022/09/27 20:57:03;;;;;;;1.87;1.40;;;;;;;5.04;100.00;94897.69;10326381;28;20221;-59
2022/09/27 21:02:03;;;;;;;1.73;1.63;;;;;;;5.11;100.00;94898.66;10326090;28;20234;-59
2022/09/27 21:07:03;;;;;;;3.57;1.30;;;;;;;5.13;100.00;94905.31;10379553;23;20270;-56
2022/09/27 21:12:04;;;;;;;2.10;1.53;;;;;;;5.15;100.00;94905.94;10410575;28;20204;-57
2022/09/27 21:17:06;;;;;;;3.50;1.40;;;;;;;5.22;100.00;94895.69;10410532;28;20228;-57
2022/09/27 21:22:07;;;;;;;1.50;1.40;;;;;;;5.15;100.00;94905.13;10410055;28;20580;-52
2022/09/27 21:27:07;;;;;;;5.00;1.43;;;;;;;5.15;100.00;94905.13;10410523;28;20204;-55
2022/09/27 21:32:07;;;;;;;1.40;1.30;;;;;;;5.22;100.00;94902.66;10410167;28;20185;-59
2022/09/27 21:37:08;;;;;;;2.53;1.63;;;;;;;5.29;100.00;94909.59;10410053;28;20304;-59
2022/09/27 21:42:09;;;;;;;2.93;1.50;;;;;;;5.30;100.00;94908.63;10410246;28;20201;-53
2022/09/27 21:47:09;;;;;;;1.73;1.60;;;;;;;5.34;100.00;94898.72;10409687;28;20212;-55
2022/09/27 21:52:09;;;;;;;1.47;1.37;;;;;;;5.57;100.00;94903.97;10410473;28;20211;-54
2022/09/27 21:57:10;;;;;;;1.60;1.50;;;;;;;5.65;100.00;94898.75;10409267;28;20296;-54
2022/09/27 22:02:10;;;;;;;1.40;1.30;;;;;;;5.68;100.00;94897.56;10411675;28;20192;-62
2022/09/27 22:07:10;;;;;;;1.40;1.30;;;;;;;5.79;100.00;94904.16;10416812;28;20270;-51
2022/09/27 22:12:11;;;;;;;1.53;1.30;;;;;;;5.60;100.00;94897.63;10416810;28;20252;-56
2022/09/27 22:17:11;;;;;;;4.10;2.30;;;;;;;5.67;100.00;94898.56;10416963;28;20295;-53
2022/09/27 22:22:11;;;;;;;1.20;1.10;;;;;;;5.64;100.00;94898.91;10415947;28;20197;-53
2022/09/27 22:27:12;;;;;;;1.30;1.20;;;;;;;5.50;100.00;94900.44;10414955;28;20226;-57
2022/09/27 22:32:12;;;;;;;1.93;1.33;;;;;;;5.39;100.00;94896.44;10408729;28;20181;-57
2022/09/27 22:37:12;;;;;;;1.30;1.20;;;;;;;5.51;100.00;94886.47;10409147;28;20240;-55
2022/09/27 22:42:13;;;;;;;1.37;1.10;;;;;;;5.58;100.00;94879.63;10415756;28;20220;-56
2022/09/27 22:47:13;;;;;;;1.10;1.10;;;;;;;5.51;100.00;94879.50;10415613;28;20215;-54
2022/09/27 22:52:14;;;;;;;1.63;1.13;;;;;;;5.50;100.00;94885.66;10415519;28;20192;-52
2022/09/27 22:57:14;;;;;;;2.70;1.27;;;;;;;5.45;100.00;94875.00;10415039;28;20225;-57
2022/09/27 23:02:14;;;;;;;2.77;1.10;;;;;;;5.51;100.00;94883.88;10414987;28;20279;-54
2022/09/27 23:07:15;;;;;;;1.10;1.00;;;;;;;5.46;100.00;94868.78;10414692;28;20248;-54
2022/09/27 23:12:15;;;;;;;1.20;1.10;;;;;;;5.44;100.00;94880.34;10414586;28;20290;-52
2022/09/27 23:17:18;;;;;;;1.00;1.00;;;;;;;5.46;100.00;94870.59;10414281;28;20232;-53
2022/09/27 23:22:18;;;;;;;1.10;1.00;;;;;;;5.43;100.00;94876.94;10413569;28;20681;-57
2022/09/27 23:32:37;;;;;;;1.37;1.10;;;;;;;5.41;100.00;94875.50;10413815;28;20204;-53
2022/09/27 23:37:38;;;;;;;1.30;1.20;;;;;;;5.43;100.00;94876.94;10413325;28;20762;-53
2022/09/27 23:42:38;;;;;;;2.00;1.10;;;;;;;5.35;100.00;94882.97;10413645;28;20288;-54
2022/09/27 23:47:39;;;;;;;1.00;1.00;;;;;;;5.43;100.00;94878.72;10412945;28;20212;-54
2022/09/27 23:52:39;;;;;;;1.00;0.90;;;;;;;5.38;100.00;94881.84;10413274;28;20228;-56
2022/09/27 23:57:40;;;;;;;1.00;0.97;;;;;;;5.44;100.00;94878.56;10412664;28;20311;-53
